LFMU/BZR METAR and TAF weather

Enter ICAO airport designator
Station Type Date Time Source
LFMU METAR 2019/08/26 07:00 UTC NOAA

LFMU 260700Z AUTO 05006KT 9000 OVC007 22/20 Q1017 BECMG NSC


Station Type Date Time Source
LFMU Decoded METAR 2019/08/26 07:00 UTC NOAA

Station name not available
Aug 26, 2019 - 03:00 AM EDT / 2019.08.26 0700 UTC
Wind: from the NE (050 degrees) at 7 MPH (6 KT):0
Visibility: 5 mile(s):0
Sky conditions: overcast
Temperature: 71 F (22 C)
Dew Point: 68 F (20 C)
Relative Humidity: 88%
Pressure (altimeter): 30.03 in. Hg (1017 hPa)
ob: LFMU 260700Z AUTO 05006KT 9000 OVC007 22/20 Q1017 BECMG NSC
cycle: 7

Station Type Date Time Source
LFMU TAF 2019/08/26 05:15 UTC NOAA

TAF
AMD LFMU 260508Z 2605/2703 VRB03KT 9999 OVC004
TEMPO 2605/2607 4500 BR BKN010
BECMG 2607/2609 08010KT CAVOK
BECMG 2611/2613 18012KT
BECMG 2620/2623 VRB03KT 4000 BR NSC
BECMG 2700/2703 08010KT

Example: see airport list